createdAt,value
2018-05-17T00:01:22.445Z,12.60
2018-05-17T00:03:49.933Z,12.60
2018-05-17T00:06:17.536Z,12.60
2018-05-17T00:08:45.806Z,12.60
2018-05-17T00:11:13.260Z,12.50
2018-05-17T00:13:40.759Z,12.60
2018-05-17T00:16:08.228Z,12.60
2018-05-17T00:18:35.691Z,12.50
2018-05-17T00:21:03.172Z,12.40
2018-05-17T00:23:30.629Z,12.40
2018-05-17T00:25:58.111Z,12.40
2018-05-17T00:28:25.572Z,12.40
2018-05-17T00:30:53.056Z,12.40
2018-05-17T00:33:21.307Z,12.30
2018-05-17T00:35:48.872Z,12.30
2018-05-17T00:38:16.348Z,12.30
2018-05-17T00:40:44.661Z,12.20
2018-05-17T00:43:12.170Z,12.30
2018-05-17T00:45:39.648Z,12.20
2018-05-17T00:48:07.213Z,12.20
2018-05-17T00:50:34.824Z,12.10
2018-05-17T00:53:14.164Z,12.10
2018-05-17T00:55:41.641Z,12.10
2018-05-17T00:58:09.146Z,12.10
2018-05-17T01:00:36.654Z,12.10
2018-05-17T01:03:04.108Z,12.10
2018-05-17T01:05:31.588Z,12.10
2018-05-17T01:07:59.041Z,12.10
2018-05-17T01:10:26.537Z,12.00
2018-05-17T01:12:54.016Z,12.00
2018-05-17T01:15:21.645Z,12.00
2018-05-17T01:17:50.069Z,12.00
2018-05-17T01:20:17.554Z,12.00
2018-05-17T01:22:45.034Z,12.00
2018-05-17T01:25:12.500Z,12.00
2018-05-17T01:27:40.743Z,11.90
2018-05-17T01:30:08.224Z,11.90
2018-05-17T01:32:35.706Z,11.90
2018-05-17T01:35:03.317Z,11.90
2018-05-17T01:37:42.645Z,11.90
2018-05-17T01:40:10.111Z,11.90
2018-05-17T01:42:37.580Z,11.90
2018-05-17T01:45:05.078Z,12.00
2018-05-17T01:47:32.559Z,12.00
2018-05-17T01:50:00.028Z,12.00
2018-05-17T01:52:27.508Z,12.00
2018-05-17T01:54:54.992Z,12.00
2018-05-17T01:57:23.244Z,12.00
2018-05-17T01:59:50.727Z,12.00
2018-05-17T02:02:18.978Z,12.00
2018-05-17T02:04:46.438Z,12.00
2018-05-17T02:07:13.972Z,12.00
2018-05-17T02:09:41.428Z,12.00
2018-05-17T02:12:08.906Z,11.90
2018-05-17T02:14:36.368Z,11.90
2018-05-17T02:17:03.850Z,11.80
2018-05-17T02:19:31.383Z,11.80
2018-05-17T02:21:58.865Z,11.80
2018-05-17T02:24:27.112Z,11.80
2018-05-17T02:26:55.340Z,11.80
2018-05-17T02:29:22.904Z,11.80
2018-05-17T02:31:50.482Z,11.80
2018-05-17T02:34:18.054Z,11.70
2018-05-17T02:36:45.553Z,11.70
2018-05-17T02:39:13.044Z,11.80
2018-05-17T02:41:40.497Z,11.80
2018-05-17T02:44:07.985Z,11.80
2018-05-17T02:46:35.675Z,11.80
2018-05-17T02:49:03.160Z,11.90
2018-05-17T02:51:31.396Z,11.90
2018-05-17T02:53:58.894Z,11.90
2018-05-17T02:56:27.133Z,11.80
2018-05-17T02:58:55.363Z,11.80
2018-05-17T03:01:22.856Z,11.80
2018-05-17T03:03:50.323Z,11.80
2018-05-17T03:06:17.802Z,11.80
2018-05-17T03:08:45.260Z,11.80
2018-05-17T03:11:12.720Z,11.90
2018-05-17T03:13:40.195Z,11.90
2018-05-17T03:16:08.435Z,11.80
2018-05-17T03:18:36.104Z,11.80
2018-05-17T03:21:04.367Z,11.70
2018-05-17T03:23:31.920Z,11.70
2018-05-17T03:25:59.440Z,11.70
2018-05-17T03:28:26.937Z,11.70
2018-05-17T03:30:54.456Z,11.70
2018-05-17T03:33:22.686Z,11.70
2018-05-17T03:35:50.223Z,11.70
2018-05-17T03:38:17.714Z,11.70
2018-05-17T03:40:45.167Z,11.70
2018-05-17T03:43:12.662Z,11.70
2018-05-17T03:45:40.118Z,11.80
2018-05-17T03:48:08.363Z,11.90
2018-05-17T03:50:35.866Z,11.90
2018-05-17T03:53:03.373Z,11.90
2018-05-17T03:55:30.841Z,11.90
2018-05-17T03:57:58.316Z,11.90
2018-05-17T04:00:26.525Z,12.00
2018-05-17T04:03:05.884Z,11.90
2018-05-17T04:05:45.059Z,12.00
2018-05-17T04:08:12.720Z,12.00
2018-05-17T04:10:40.188Z,11.90
2018-05-17T04:13:07.669Z,11.90
2018-05-17T04:15:35.889Z,12.00
2018-05-17T04:18:03.377Z,12.00
2018-05-17T04:20:30.855Z,12.10
2018-05-17T04:22:59.120Z,12.20
2018-05-17T04:25:27.370Z,12.20
2018-05-17T04:27:54.852Z,12.10
2018-05-17T04:30:22.299Z,12.20
2018-05-17T04:32:49.777Z,12.20
2018-05-17T04:35:18.019Z,12.20
2018-05-17T04:37:45.492Z,12.20
2018-05-17T04:40:13.046Z,12.20
2018-05-17T04:42:41.209Z,12.20
2018-05-17T04:45:08.780Z,12.20
2018-05-17T04:47:36.251Z,12.20
2018-05-17T04:50:03.745Z,12.20
2018-05-17T04:52:31.213Z,12.30
2018-05-17T04:54:58.687Z,12.30
2018-05-17T04:57:26.168Z,12.30
2018-05-17T04:59:53.632Z,12.30
2018-05-17T05:02:21.169Z,12.40
2018-05-17T05:04:48.626Z,12.40
2018-05-17T05:07:16.108Z,12.50
2018-05-17T05:09:43.731Z,12.50
2018-05-17T05:12:11.273Z,12.60
2018-05-17T05:14:38.754Z,12.60
2018-05-17T05:17:06.305Z,12.70
2018-05-17T05:19:33.801Z,12.70
2018-05-17T05:22:01.736Z,12.70
2018-05-17T05:24:29.193Z,12.80
2018-05-17T05:26:56.674Z,12.80
2018-05-17T05:29:24.137Z,12.90
2018-05-17T05:31:51.624Z,12.80
2018-05-17T05:34:19.098Z,12.80
2018-05-17T05:36:47.324Z,12.80
2018-05-17T05:39:14.801Z,12.80
2018-05-17T05:41:43.195Z,13.00
2018-05-17T05:44:10.908Z,13.00
2018-05-17T05:46:39.195Z,13.00
2018-05-17T05:49:06.727Z,13.00
2018-05-17T05:51:35.177Z,13.10
2018-05-17T05:54:02.636Z,13.10
2018-05-17T05:56:30.106Z,13.10
2018-05-17T05:58:58.387Z,13.10
2018-05-17T06:01:26.621Z,13.10
2018-05-17T06:03:54.090Z,13.10
2018-05-17T06:06:21.573Z,13.20
2018-05-17T06:08:49.156Z,13.10
2018-05-17T06:11:16.806Z,13.10
2018-05-17T06:13:45.164Z,13.40
2018-05-17T06:16:12.615Z,13.30
2018-05-17T06:18:40.124Z,13.50
2018-05-17T06:21:07.603Z,13.50
2018-05-17T06:23:35.072Z,13.60
2018-05-17T06:26:02.539Z,13.60
2018-05-17T06:28:30.013Z,13.60
2018-05-17T06:30:57.523Z,13.60
2018-05-17T06:33:25.443Z,13.60
2018-05-17T06:35:52.968Z,13.60
2018-05-17T06:38:20.420Z,13.70
2018-05-17T06:40:47.917Z,13.80
2018-05-17T06:43:15.373Z,13.90
2018-05-17T06:45:42.863Z,14.00
2018-05-17T06:48:10.356Z,14.10
2018-05-17T06:50:37.816Z,14.10
2018-05-17T06:53:05.287Z,14.10
2018-05-17T06:55:33.572Z,14.00
2018-05-17T06:58:01.065Z,14.00
2018-05-17T07:00:29.378Z,13.70
2018-05-17T07:02:56.778Z,13.70
2018-05-17T07:05:24.235Z,13.60
2018-05-17T07:07:51.720Z,13.40
2018-05-17T07:10:20.048Z,13.30
2018-05-17T07:12:47.589Z,13.30
2018-05-17T07:15:15.077Z,13.50
2018-05-17T07:17:42.526Z,13.70
2018-05-17T07:20:10.778Z,14.30
2018-05-17T07:22:38.264Z,14.20
2018-05-17T07:25:05.749Z,14.60
2018-05-17T07:27:33.601Z,14.90
2018-05-17T07:30:01.227Z,15.20
2018-05-17T07:32:28.712Z,15.50
2018-05-17T07:34:56.172Z,15.60
2018-05-17T07:37:24.394Z,15.60
2018-05-17T07:39:51.984Z,15.60
2018-05-17T07:42:19.440Z,15.60
2018-05-17T07:44:46.935Z,15.60
2018-05-17T07:47:14.460Z,15.50
2018-05-17T07:49:41.876Z,15.40
2018-05-17T07:52:09.762Z,15.10
2018-05-17T07:54:37.244Z,14.90
2018-05-17T07:57:04.708Z,14.70
2018-05-17T07:59:32.188Z,14.50
2018-05-17T08:02:00.293Z,14.40
2018-05-17T08:04:27.891Z,14.30
2018-05-17T08:06:55.349Z,14.30
2018-05-17T08:09:23.120Z,14.30
2018-05-17T08:11:50.589Z,14.30
2018-05-17T08:14:18.045Z,14.40
2018-05-17T08:16:45.528Z,14.50
2018-05-17T08:19:12.985Z,14.60
2018-05-17T08:21:40.460Z,14.60
2018-05-17T08:24:07.940Z,14.70
2018-05-17T08:26:36.190Z,14.90
2018-05-17T08:29:03.790Z,14.90
2018-05-17T08:31:31.171Z,15.00
2018-05-17T08:33:58.678Z,15.00
2018-05-17T08:36:27.047Z,15.10
2018-05-17T08:38:54.445Z,15.10
2018-05-17T08:41:21.919Z,15.30
2018-05-17T08:43:49.400Z,15.40
2018-05-17T08:46:16.847Z,15.50
2018-05-17T08:48:44.320Z,15.60
2018-05-17T08:51:11.771Z,15.50
2018-05-17T08:53:39.272Z,15.50
2018-05-17T08:56:06.728Z,15.60
2018-05-17T08:58:34.197Z,15.60
2018-05-17T09:01:01.772Z,15.60
2018-05-17T09:03:29.253Z,15.70
2018-05-17T09:05:56.704Z,15.70
2018-05-17T09:08:24.231Z,15.80
2018-05-17T09:10:51.739Z,15.80
2018-05-17T09:13:19.972Z,16.00
2018-05-17T09:15:48.291Z,16.00
2018-05-17T09:18:15.746Z,16.00
2018-05-17T09:20:43.203Z,16.10
2018-05-17T09:23:10.695Z,16.30
2018-05-17T09:25:38.161Z,16.50
2018-05-17T09:28:05.668Z,16.70
2018-05-17T09:30:33.212Z,16.80
2018-05-17T09:33:00.707Z,16.60
2018-05-17T09:35:28.173Z,16.60
2018-05-17T09:37:55.698Z,16.60
2018-05-17T09:40:23.153Z,16.70
2018-05-17T09:42:50.665Z,16.80
2018-05-17T09:45:18.152Z,17.00
2018-05-17T09:47:46.408Z,17.10
2018-05-17T09:50:13.857Z,17.10
2018-05-17T09:52:41.332Z,17.10
2018-05-17T09:55:09.580Z,17.00
2018-05-17T09:57:37.108Z,17.00
2018-05-17T10:00:04.588Z,17.00
2018-05-17T10:02:32.050Z,17.10
2018-05-17T10:04:59.511Z,17.20
2018-05-17T10:07:27.029Z,17.20
2018-05-17T10:09:54.588Z,17.20
2018-05-17T10:12:22.072Z,17.10
2018-05-17T10:14:49.537Z,17.20
2018-05-17T10:17:17.029Z,17.30
2018-05-17T10:19:44.486Z,17.30
2018-05-17T10:22:11.986Z,17.40
2018-05-17T10:24:39.551Z,17.50
2018-05-17T10:27:07.040Z,17.50
2018-05-17T10:29:34.614Z,17.60
2018-05-17T10:32:02.062Z,17.60
2018-05-17T10:34:29.553Z,17.60
2018-05-17T10:36:57.891Z,17.80
2018-05-17T10:39:25.357Z,17.80
2018-05-17T10:41:52.816Z,17.90
2018-05-17T10:44:20.393Z,18.00
2018-05-17T10:46:47.851Z,18.00
2018-05-17T10:49:15.310Z,18.00
2018-05-17T10:51:42.800Z,18.00
2018-05-17T10:54:10.291Z,18.20
2018-05-17T10:56:37.749Z,18.30
2018-05-17T10:59:05.540Z,18.40
2018-05-17T11:01:33.012Z,18.40
2018-05-17T11:04:00.481Z,18.50
2018-05-17T11:06:27.957Z,18.50
2018-05-17T11:08:55.436Z,18.60
2018-05-17T11:11:22.969Z,18.60
2018-05-17T11:13:51.200Z,18.70
2018-05-17T11:16:18.683Z,18.70
2018-05-17T11:18:46.143Z,18.70
2018-05-17T11:21:13.600Z,18.90
2018-05-17T11:23:41.115Z,18.90
2018-05-17T11:26:08.616Z,19.00
2018-05-17T11:28:36.133Z,19.20
2018-05-17T11:31:03.881Z,19.30
2018-05-17T11:33:31.481Z,19.20
2018-05-17T11:35:58.941Z,19.30
2018-05-17T11:38:26.530Z,19.30
2018-05-17T11:40:53.922Z,19.30
2018-05-17T11:43:21.557Z,19.20
2018-05-17T11:45:49.016Z,19.30
2018-05-17T11:48:17.336Z,19.50
2018-05-17T11:50:44.752Z,19.50
2018-05-17T11:53:12.248Z,19.60
2018-05-17T11:55:39.716Z,19.80
2018-05-17T11:58:07.206Z,19.90
2018-05-17T12:00:34.675Z,19.90
2018-05-17T12:03:02.932Z,19.90
2018-05-17T12:05:30.379Z,19.90
2018-05-17T12:07:57.834Z,19.90
2018-05-17T12:10:25.390Z,20.10
2018-05-17T12:12:52.862Z,20.20
2018-05-17T12:15:20.320Z,20.30
2018-05-17T12:17:47.984Z,20.30
2018-05-17T12:20:15.804Z,20.30
2018-05-17T12:22:43.280Z,20.40
2018-05-17T12:25:10.768Z,20.40
2018-05-17T12:27:38.244Z,20.50
2018-05-17T12:30:05.724Z,20.60
2018-05-17T12:32:33.199Z,20.80
2018-05-17T12:35:00.688Z,20.90
2018-05-17T12:37:28.286Z,20.80
2018-05-17T12:39:56.537Z,20.50
2018-05-17T12:42:24.008Z,20.50
2018-05-17T12:44:51.497Z,20.50
2018-05-17T12:47:18.984Z,20.50
2018-05-17T12:49:46.560Z,20.50
2018-05-17T12:52:14.040Z,20.50
2018-05-17T12:54:41.526Z,20.60
2018-05-17T12:57:09.032Z,20.60
2018-05-17T12:59:36.502Z,20.50
2018-05-17T13:02:03.996Z,20.70
2018-05-17T13:04:32.604Z,20.70
2018-05-17T13:07:00.127Z,20.70
2018-05-17T13:09:27.721Z,20.70
2018-05-17T13:11:55.339Z,20.90
2018-05-17T13:14:22.854Z,21.00
2018-05-17T13:16:50.309Z,21.00
2018-05-17T13:19:17.808Z,21.00
2018-05-17T13:21:45.268Z,21.10
2018-05-17T13:24:12.777Z,21.20
2018-05-17T13:26:40.271Z,21.20
2018-05-17T13:29:07.756Z,21.10
2018-05-17T13:31:35.229Z,21.10
2018-05-17T13:34:03.472Z,21.20
2018-05-17T13:36:31.032Z,21.20
2018-05-17T13:38:58.506Z,21.30
2018-05-17T13:41:25.972Z,21.90
2018-05-17T13:43:53.481Z,23.40
2018-05-17T13:46:21.026Z,25.50
2018-05-17T13:48:48.535Z,27.60
2018-05-17T13:51:16.012Z,29.30
2018-05-17T13:53:43.474Z,30.50
2018-05-17T13:56:10.955Z,31.80
2018-05-17T13:58:38.457Z,32.70
2018-05-17T14:01:05.944Z,33.60
2018-05-17T14:03:33.392Z,34.70
2018-05-17T14:06:00.884Z,35.30
2018-05-17T14:08:29.115Z,35.80
2018-05-17T14:10:56.733Z,35.80
2018-05-17T14:13:24.208Z,36.40
2018-05-17T14:15:51.690Z,37.50
2018-05-17T14:18:19.180Z,39.60
2018-05-17T14:20:46.646Z,41.10
2018-05-17T14:23:14.963Z,42.50
2018-05-17T14:25:42.359Z,42.40
2018-05-17T14:28:09.815Z,43.20
2018-05-17T14:30:37.309Z,43.60
2018-05-17T14:33:05.571Z,44.50
2018-05-17T14:35:33.913Z,44.40
2018-05-17T14:38:01.435Z,44.30
2018-05-17T14:40:29.012Z,44.00
2018-05-17T14:42:56.489Z,43.70
2018-05-17T14:45:24.888Z,44.20
2018-05-17T14:47:52.348Z,44.20
2018-05-17T14:50:19.841Z,44.50
2018-05-17T14:52:48.096Z,44.20
2018-05-17T14:55:15.582Z,44.20
2018-05-17T14:57:43.832Z,43.80
2018-05-17T15:00:12.100Z,43.70
2018-05-17T15:02:40.337Z,43.70
2018-05-17T15:05:07.871Z,43.70
2018-05-17T15:07:35.408Z,43.80
2018-05-17T15:10:02.898Z,43.50
2018-05-17T15:12:30.383Z,42.70
2018-05-17T15:14:57.851Z,42.30
2018-05-17T15:17:25.375Z,42.30
2018-05-17T15:19:52.913Z,42.80
2018-05-17T15:22:21.137Z,42.90
2018-05-17T15:24:48.645Z,42.90
2018-05-17T15:27:16.910Z,43.30
2018-05-17T15:29:44.484Z,43.30
2018-05-17T15:32:12.627Z,38.30
2018-05-17T15:34:40.168Z,38.20
2018-05-17T15:37:07.662Z,36.00
2018-05-17T15:39:35.255Z,34.90
2018-05-17T15:42:02.763Z,33.30
2018-05-17T15:44:30.228Z,32.00
2018-05-17T15:46:57.680Z,30.90
2018-05-17T15:49:25.188Z,30.20
2018-05-17T15:51:52.648Z,30.00
2018-05-17T15:54:20.165Z,29.40
2018-05-17T15:56:47.685Z,28.20
2018-05-17T15:59:15.200Z,27.00
2018-05-17T16:01:42.664Z,26.10
2018-05-17T16:04:10.917Z,25.30
2018-05-17T16:06:38.479Z,25.30
2018-05-17T16:09:06.029Z,24.90
2018-05-17T16:11:33.925Z,24.40
2018-05-17T16:14:02.202Z,23.60
2018-05-17T16:16:29.686Z,23.60
2018-05-17T16:18:58.067Z,22.80
2018-05-17T16:21:25.562Z,22.80
2018-05-17T16:23:53.016Z,22.50
2018-05-17T16:26:20.516Z,22.20
2018-05-17T16:28:47.989Z,22.00
2018-05-17T16:31:15.466Z,21.70
2018-05-17T16:33:42.940Z,21.50
2018-05-17T16:36:10.430Z,21.30
2018-05-17T16:38:37.888Z,21.20
2018-05-17T16:41:05.408Z,21.10
2018-05-17T16:43:32.945Z,21.00
2018-05-17T16:46:00.463Z,21.00
2018-05-17T16:48:28.000Z,20.80
2018-05-17T16:50:56.183Z,20.70
2018-05-17T16:53:23.837Z,20.70
2018-05-17T16:55:52.137Z,20.40
2018-05-17T16:58:19.617Z,20.40
2018-05-17T17:00:47.324Z,20.30
2018-05-17T17:03:14.938Z,20.20
2018-05-17T17:05:42.463Z,20.00
2018-05-17T17:08:09.948Z,19.80
2018-05-17T17:10:37.443Z,19.60
2018-05-17T17:13:04.939Z,19.50
2018-05-17T17:15:32.434Z,19.40
2018-05-17T17:17:59.916Z,19.80
2018-05-17T17:20:28.470Z,20.80
2018-05-17T17:22:55.972Z,20.80
2018-05-17T17:25:23.440Z,20.60
2018-05-17T17:27:50.973Z,20.30
2018-05-17T17:30:20.048Z,19.70
2018-05-17T17:32:47.867Z,19.70
2018-05-17T17:35:15.457Z,19.40
2018-05-17T17:37:43.020Z,19.20
2018-05-17T17:40:10.584Z,19.00
2018-05-17T17:42:38.095Z,19.00
2018-05-17T17:45:05.736Z,18.90
2018-05-17T17:47:34.116Z,18.90
2018-05-17T17:50:02.525Z,18.90
2018-05-17T17:52:30.065Z,18.80
2018-05-17T17:54:57.723Z,19.70
2018-05-17T17:57:26.124Z,19.40
2018-05-17T17:59:53.843Z,19.40
2018-05-17T18:02:21.341Z,18.90
2018-05-17T18:04:48.953Z,18.50
2018-05-17T18:07:16.648Z,18.30
2018-05-17T18:09:44.343Z,18.10
2018-05-17T18:12:12.143Z,17.80
2018-05-17T18:14:39.884Z,17.70
2018-05-17T18:17:09.634Z,17.60
2018-05-17T18:19:38.041Z,17.50
2018-05-17T18:22:06.267Z,17.30
2018-05-17T18:24:33.848Z,17.30
2018-05-17T18:27:01.309Z,17.10
2018-05-17T18:29:28.899Z,16.80
2018-05-17T18:31:56.353Z,16.60
2018-05-17T18:34:24.612Z,16.40
2018-05-17T18:36:52.191Z,16.40
2018-05-17T18:39:19.684Z,16.40
2018-05-17T18:41:47.079Z,16.30
2018-05-17T18:44:14.918Z,16.30
2018-05-17T18:46:43.193Z,16.10
2018-05-17T18:49:10.644Z,16.10
2018-05-17T18:51:38.305Z,16.00
2018-05-17T18:54:06.840Z,15.80
2018-05-17T18:56:34.360Z,15.80
2018-05-17T18:59:01.978Z,15.60
2018-05-17T19:01:30.311Z,15.40
2018-05-17T19:03:57.782Z,15.40
2018-05-17T19:06:25.372Z,15.40
2018-05-17T19:08:53.606Z,15.30
2018-05-17T19:11:21.085Z,15.30
2018-05-17T19:13:48.564Z,15.30
2018-05-17T19:16:17.121Z,15.30
2018-05-17T19:18:44.591Z,15.30
2018-05-17T19:21:12.323Z,15.30
2018-05-17T19:23:39.981Z,15.30
2018-05-17T19:26:07.590Z,15.20
2018-05-17T19:28:35.433Z,15.20
2018-05-17T19:31:02.919Z,15.10
2018-05-17T19:33:30.645Z,15.20
2018-05-17T19:35:58.103Z,15.10
2018-05-17T19:38:25.579Z,15.10
2018-05-17T19:40:53.330Z,15.10
2018-05-17T19:43:20.812Z,15.00
2018-05-17T19:45:48.504Z,14.90
2018-05-17T19:48:16.004Z,14.80
2018-05-17T19:50:43.500Z,14.90
2018-05-17T19:53:11.869Z,15.00
2018-05-17T19:55:39.385Z,15.00
2018-05-17T19:58:06.850Z,15.00
2018-05-17T20:00:34.472Z,15.00
2018-05-17T20:03:02.080Z,15.10
2018-05-17T20:05:29.660Z,15.30
2018-05-17T20:07:57.143Z,15.30
2018-05-17T20:10:25.413Z,15.30
2018-05-17T20:12:53.647Z,15.30
2018-05-17T20:15:21.301Z,15.30
2018-05-17T20:17:49.588Z,15.20
2018-05-17T20:20:17.125Z,15.20
2018-05-17T20:22:45.257Z,15.10
2018-05-17T20:25:12.754Z,15.10
2018-05-17T20:27:40.552Z,15.10
2018-05-17T20:30:08.827Z,14.80
2018-05-17T20:32:36.323Z,14.80
2018-05-17T20:35:03.827Z,14.80
2018-05-17T20:37:31.288Z,14.80
2018-05-17T20:39:58.768Z,14.70
2018-05-17T20:42:26.323Z,14.70
2018-05-17T20:44:53.744Z,14.60
2018-05-17T20:47:21.222Z,14.50
2018-05-17T20:49:49.005Z,14.40
2018-05-17T20:52:16.464Z,14.20
2018-05-17T20:54:43.952Z,14.20
2018-05-17T20:57:11.408Z,14.20
2018-05-17T20:59:38.901Z,14.10
2018-05-17T21:02:06.389Z,14.10
2018-05-17T21:04:33.864Z,14.10
2018-05-17T21:07:01.353Z,14.10
2018-05-17T21:09:29.575Z,14.10
2018-05-17T21:11:57.251Z,14.10
2018-05-17T21:14:24.704Z,14.10
2018-05-17T21:16:52.189Z,14.10
2018-05-17T21:19:19.673Z,14.10
2018-05-17T21:21:47.917Z,14.10
2018-05-17T21:24:15.543Z,14.10
2018-05-17T21:26:43.132Z,14.00
2018-05-17T21:29:10.591Z,14.00
2018-05-17T21:31:38.081Z,14.00
2018-05-17T21:34:05.684Z,13.90
2018-05-17T21:36:33.147Z,13.90
2018-05-17T21:39:00.613Z,13.90
2018-05-17T21:41:28.088Z,13.90
2018-05-17T21:43:55.600Z,13.90
2018-05-17T21:46:23.061Z,13.90
2018-05-17T21:48:50.636Z,13.90
2018-05-17T21:51:18.229Z,13.80
2018-05-17T21:53:45.692Z,13.80
2018-05-17T21:56:13.177Z,13.80
2018-05-17T21:58:41.409Z,13.70
2018-05-17T22:01:08.897Z,13.70
2018-05-17T22:03:36.359Z,13.80
2018-05-17T22:06:03.858Z,13.70
2018-05-17T22:08:31.341Z,13.60
2018-05-17T22:10:58.805Z,13.60
2018-05-17T22:13:26.286Z,13.50
2018-05-17T22:15:53.779Z,13.40
2018-05-17T22:18:21.236Z,13.30
2018-05-17T22:20:48.717Z,13.20
2018-05-17T22:23:16.171Z,13.20
2018-05-17T22:25:43.660Z,13.20
2018-05-17T22:28:11.126Z,13.10
2018-05-17T22:30:38.670Z,13.10
2018-05-17T22:33:06.149Z,13.20
2018-05-17T22:35:33.632Z,13.20
2018-05-17T22:38:01.899Z,13.20
2018-05-17T22:40:29.521Z,13.20
2018-05-17T22:42:56.992Z,13.20
2018-05-17T22:45:24.475Z,13.20
2018-05-17T22:47:51.955Z,13.20
2018-05-17T22:50:20.204Z,13.10
2018-05-17T22:52:47.682Z,13.10
2018-05-17T22:55:15.164Z,13.10
2018-05-17T22:57:54.292Z,13.10
2018-05-17T23:00:21.762Z,13.00
2018-05-17T23:02:49.252Z,12.90
2018-05-17T23:05:17.068Z,12.80
2018-05-17T23:07:44.540Z,12.80
2018-05-17T23:10:12.485Z,12.80
2018-05-17T23:12:40.800Z,12.60
2018-05-17T23:15:08.284Z,12.60
2018-05-17T23:17:35.752Z,12.60
2018-05-17T23:20:03.224Z,12.60
2018-05-17T23:22:36.490Z,12.60
2018-05-17T23:25:03.983Z,12.60
2018-05-17T23:27:31.441Z,12.70
2018-05-17T23:29:58.900Z,12.70
2018-05-17T23:32:26.376Z,12.70
2018-05-17T23:34:53.849Z,12.60
2018-05-17T23:37:21.352Z,12.50
2018-05-17T23:39:48.845Z,12.40
2018-05-17T23:42:17.090Z,12.50
2018-05-17T23:44:44.693Z,12.40
2018-05-17T23:47:12.179Z,12.40
2018-05-17T23:49:39.663Z,12.30
2018-05-17T23:52:07.253Z,12.20
2018-05-17T23:54:34.842Z,12.10
2018-05-17T23:57:02.301Z,12.10
2018-05-17T23:59:29.793Z,12.00
